sensor_id;sensor_type;location;lat;lon;timestamp;pressure;altitude;pressure_sealevel;temperature;humidity
27202;BME280;14717;46.924;15.474;2023-05-23T00:02:18;97567.38;;;15.54;100.00
27202;BME280;14717;46.924;15.474;2023-05-23T00:04:43;97561.59;;;15.67;100.00
27202;BME280;14717;46.924;15.474;2023-05-23T00:07:09;97561.06;;;15.74;100.00
27202;BME280;14717;46.924;15.474;2023-05-23T00:09:34;97551.53;;;15.83;100.00
27202;BME280;14717;46.924;15.474;2023-05-23T00:12:00;97552.88;;;15.77;100.00
27202;BME280;14717;46.924;15.474;2023-05-23T00:14:25;97549.72;;;15.87;100.00
27202;BME280;14717;46.924;15.474;2023-05-23T00:16:51;97552.13;;;15.60;100.00
27202;BME280;14717;46.924;15.474;2023-05-23T00:19:16;97544.72;;;15.64;100.00
27202;BME280;14717;46.924;15.474;2023-05-23T00:21:42;97542.69;;;15.35;100.00
27202;BME280;14717;46.924;15.474;2023-05-23T00:24:08;97548.41;;;15.31;100.00
27202;BME280;14717;46.924;15.474;2023-05-23T00:26:35;97533.03;;;15.33;100.00
27202;BME280;14717;46.924;15.474;2023-05-23T00:29:01;97541.38;;;15.25;100.00
27202;BME280;14717;46.924;15.474;2023-05-23T00:31:26;97546.78;;;15.21;100.00
27202;BME280;14717;46.924;15.474;2023-05-23T00:33:51;97546.28;;;15.28;100.00
27202;BME280;14717;46.924;15.474;2023-05-23T00:36:17;97537.63;;;15.12;100.00
27202;BME280;14717;46.924;15.474;2023-05-23T00:38:42;97539.47;;;15.17;100.00
27202;BME280;14717;46.924;15.474;2023-05-23T00:41:10;97549.09;;;15.02;100.00
27202;BME280;14717;46.924;15.474;2023-05-23T00:43:35;97550.38;;;14.96;100.00
27202;BME280;14717;46.924;15.474;2023-05-23T00:46:01;97561.38;;;14.76;100.00
27202;BME280;14717;46.924;15.474;2023-05-23T00:48:27;97551.88;;;15.02;100.00
27202;BME280;14717;46.924;15.474;2023-05-23T00:50:53;97560.88;;;15.16;100.00
27202;BME280;14717;46.924;15.474;2023-05-23T00:53:20;97559.22;;;14.98;100.00
27202;BME280;14717;46.924;15.474;2023-05-23T00:55:46;97559.72;;;14.84;100.00
27202;BME280;14717;46.924;15.474;2023-05-23T00:58:11;97544.34;;;15.03;100.00
27202;BME280;14717;46.924;15.474;2023-05-23T01:00:40;97540.56;;;15.07;100.00
27202;BME280;14717;46.924;15.474;2023-05-23T01:03:05;97536.81;;;15.12;100.00
27202;BME280;14717;46.924;15.474;2023-05-23T01:05:31;97543.66;;;15.31;100.00
27202;BME280;14717;46.924;15.474;2023-05-23T01:07:56;97545.50;;;15.02;100.00
27202;BME280;14717;46.924;15.474;2023-05-23T01:10:25;97550.88;;;14.90;100.00
27202;BME280;14717;46.924;15.474;2023-05-23T01:20:54;97544.19;;;14.66;100.00
27202;BME280;14717;46.924;15.474;2023-05-23T01:23:35;97552.34;;;14.46;100.00
27202;BME280;14717;46.924;15.474;2023-05-23T01:28:54;97534.03;;;14.36;100.00
27202;BME280;14717;46.924;15.474;2023-05-23T01:31:23;97544.16;;;14.41;100.00
27202;BME280;14717;46.924;15.474;2023-05-23T01:33:53;97537.13;;;14.35;100.00
27202;BME280;14717;46.924;15.474;2023-05-23T01:36:20;97529.13;;;14.50;100.00
27202;BME280;14717;46.924;15.474;2023-05-23T01:38:46;97533.88;;;14.66;100.00
27202;BME280;14717;46.924;15.474;2023-05-23T01:41:11;97530.78;;;14.76;100.00
27202;BME280;14717;46.924;15.474;2023-05-23T01:43:37;97528.47;;;14.78;100.00
27202;BME280;14717;46.924;15.474;2023-05-23T01:46:03;97526.88;;;14.77;100.00
27202;BME280;14717;46.924;15.474;2023-05-23T01:48:30;97532.56;;;14.47;100.00
27202;BME280;14717;46.924;15.474;2023-05-23T01:50:56;97526.03;;;14.60;100.00
27202;BME280;14717;46.924;15.474;2023-05-23T01:53:23;97520.63;;;14.55;100.00
27202;BME280;14717;46.924;15.474;2023-05-23T01:55:50;97516.34;;;14.49;100.00
27202;BME280;14717;46.924;15.474;2023-05-23T01:58:16;97514.38;;;14.33;100.00
27202;BME280;14717;46.924;15.474;2023-05-23T02:00:42;97514.38;;;14.24;100.00
27202;BME280;14717;46.924;15.474;2023-05-23T02:03:07;97498.16;;;14.09;100.00
27202;BME280;14717;46.924;15.474;2023-05-23T02:05:33;97508.81;;;14.16;100.00
27202;BME280;14717;46.924;15.474;2023-05-23T02:07:58;97499.97;;;14.05;100.00
27202;BME280;14717;46.924;15.474;2023-05-23T02:10:23;97496.69;;;14.04;100.00
27202;BME280;14717;46.924;15.474;2023-05-23T02:12:49;97500.09;;;14.01;100.00
27202;BME280;14717;46.924;15.474;2023-05-23T02:15:14;97504.56;;;14.18;100.00
27202;BME280;14717;46.924;15.474;2023-05-23T02:17:41;97497.69;;;14.07;100.00
27202;BME280;14717;46.924;15.474;2023-05-23T02:20:07;97496.41;;;14.13;100.00
27202;BME280;14717;46.924;15.474;2023-05-23T02:22:32;97496.25;;;14.27;100.00
27202;BME280;14717;46.924;15.474;2023-05-23T02:24:58;97503.78;;;14.35;100.00
27202;BME280;14717;46.924;15.474;2023-05-23T02:27:23;97507.50;;;14.13;100.00
27202;BME280;14717;46.924;15.474;2023-05-23T02:29:48;97504.75;;;14.22;100.00
27202;BME280;14717;46.924;15.474;2023-05-23T02:32:14;97502.28;;;14.20;100.00
27202;BME280;14717;46.924;15.474;2023-05-23T02:34:39;97502.63;;;14.27;100.00
27202;BME280;14717;46.924;15.474;2023-05-23T02:37:04;97505.06;;;14.20;100.00
27202;BME280;14717;46.924;15.474;2023-05-23T02:39:30;97503.72;;;14.18;100.00
27202;BME280;14717;46.924;15.474;2023-05-23T02:41:55;97517.53;;;13.93;100.00
27202;BME280;14717;46.924;15.474;2023-05-23T02:44:20;97513.25;;;13.87;100.00
27202;BME280;14717;46.924;15.474;2023-05-23T02:46:46;97510.63;;;13.82;100.00
27202;BME280;14717;46.924;15.474;2023-05-23T02:49:12;97507.03;;;13.73;100.00
27202;BME280;14717;46.924;15.474;2023-05-23T02:51:37;97499.59;;;13.90;100.00
27202;BME280;14717;46.924;15.474;2023-05-23T02:54:02;97494.50;;;13.92;100.00
27202;BME280;14717;46.924;15.474;2023-05-23T02:56:28;97490.78;;;13.97;100.00
27202;BME280;14717;46.924;15.474;2023-05-23T02:58:53;97487.81;;;13.93;100.00
27202;BME280;14717;46.924;15.474;2023-05-23T03:01:19;97489.63;;;13.98;100.00
27202;BME280;14717;46.924;15.474;2023-05-23T03:03:44;97494.28;;;13.72;100.00
27202;BME280;14717;46.924;15.474;2023-05-23T03:06:10;97497.53;;;13.65;100.00
27202;BME280;14717;46.924;15.474;2023-05-23T03:08:39;97487.84;;;13.55;100.00
27202;BME280;14717;46.924;15.474;2023-05-23T03:11:05;97494.06;;;13.60;100.00
27202;BME280;14717;46.924;15.474;2023-05-23T03:13:30;97493.28;;;13.68;100.00
27202;BME280;14717;46.924;15.474;2023-05-23T03:15:56;97497.16;;;13.59;100.00
27202;BME280;14717;46.924;15.474;2023-05-23T03:18:21;97492.47;;;13.67;100.00
27202;BME280;14717;46.924;15.474;2023-05-23T03:20:47;97495.41;;;13.62;100.00
27202;BME280;14717;46.924;15.474;2023-05-23T03:23:12;97497.88;;;13.72;100.00
27202;BME280;14717;46.924;15.474;2023-05-23T03:25:37;97495.56;;;13.66;100.00
27202;BME280;14717;46.924;15.474;2023-05-23T03:28:03;97493.16;;;13.34;100.00
27202;BME280;14717;46.924;15.474;2023-05-23T03:30:28;97495.41;;;13.32;100.00
27202;BME280;14717;46.924;15.474;2023-05-23T03:32:54;97490.88;;;13.36;100.00
27202;BME280;14717;46.924;15.474;2023-05-23T03:35:19;97483.03;;;13.38;100.00
27202;BME280;14717;46.924;15.474;2023-05-23T03:37:45;97485.56;;;13.57;100.00
27202;BME280;14717;46.924;15.474;2023-05-23T03:40:10;97495.50;;;13.49;100.00
27202;BME280;14717;46.924;15.474;2023-05-23T03:42:37;97499.22;;;13.36;100.00
27202;BME280;14717;46.924;15.474;2023-05-23T03:45:03;97492.22;;;13.47;100.00
27202;BME280;14717;46.924;15.474;2023-05-23T03:47:29;97499.47;;;13.65;100.00
27202;BME280;14717;46.924;15.474;2023-05-23T03:49:54;97500.59;;;13.56;100.00
27202;BME280;14717;46.924;15.474;2023-05-23T03:52:19;97496.50;;;13.53;100.00
27202;BME280;14717;46.924;15.474;2023-05-23T03:54:45;97501.69;;;13.46;100.00
27202;BME280;14717;46.924;15.474;2023-05-23T03:57:10;97504.78;;;13.45;100.00
27202;BME280;14717;46.924;15.474;2023-05-23T03:59:36;97493.50;;;13.41;100.00
27202;BME280;14717;46.924;15.474;2023-05-23T04:02:01;97501.91;;;13.58;100.00
27202;BME280;14717;46.924;15.474;2023-05-23T04:04:27;97503.78;;;13.79;100.00
27202;BME280;14717;46.924;15.474;2023-05-23T04:06:53;97495.91;;;13.73;100.00
27202;BME280;14717;46.924;15.474;2023-05-23T04:09:18;97500.19;;;13.70;100.00
27202;BME280;14717;46.924;15.474;2023-05-23T04:11:44;97496.56;;;13.70;100.00
27202;BME280;14717;46.924;15.474;2023-05-23T04:14:09;97490.53;;;13.76;100.00
27202;BME280;14717;46.924;15.474;2023-05-23T04:16:36;97491.41;;;13.94;100.00
27202;BME280;14717;46.924;15.474;2023-05-23T04:19:02;97491.75;;;14.01;100.00
27202;BME280;14717;46.924;15.474;2023-05-23T04:21:29;97507.34;;;14.18;100.00
27202;BME280;14717;46.924;15.474;2023-05-23T04:23:55;97499.34;;;14.25;100.00
27202;BME280;14717;46.924;15.474;2023-05-23T04:26:20;97507.03;;;14.37;100.00
27202;BME280;14717;46.924;15.474;2023-05-23T04:28:46;97500.16;;;14.26;100.00
27202;BME280;14717;46.924;15.474;2023-05-23T04:31:13;97506.50;;;14.09;100.00
27202;BME280;14717;46.924;15.474;2023-05-23T04:33:38;97494.28;;;14.19;100.00
27202;BME280;14717;46.924;15.474;2023-05-23T04:36:04;97487.59;;;14.37;100.00
27202;BME280;14717;46.924;15.474;2023-05-23T04:38:33;97488.06;;;14.55;100.00
27202;BME280;14717;46.924;15.474;2023-05-23T04:40:58;97492.31;;;14.78;100.00
27202;BME280;14717;46.924;15.474;2023-05-23T04:43:24;97481.50;;;14.85;100.00
27202;BME280;14717;46.924;15.474;2023-05-23T04:45:51;97486.25;;;14.85;100.00
27202;BME280;14717;46.924;15.474;2023-05-23T04:48:20;97484.97;;;14.90;100.00
27202;BME280;14717;46.924;15.474;2023-05-23T04:50:48;97490.66;;;15.02;100.00
27202;BME280;14717;46.924;15.474;2023-05-23T04:53:15;97498.66;;;15.12;100.00
27202;BME280;14717;46.924;15.474;2023-05-23T04:55:40;97486.22;;;15.27;100.00
27202;BME280;14717;46.924;15.474;2023-05-23T04:58:06;97489.16;;;15.13;100.00
27202;BME280;14717;46.924;15.474;2023-05-23T05:00:32;97495.56;;;15.14;100.00
27202;BME280;14717;46.924;15.474;2023-05-23T05:02:57;97496.19;;;15.28;100.00
27202;BME280;14717;46.924;15.474;2023-05-23T05:05:22;97491.91;;;15.38;100.00
27202;BME280;14717;46.924;15.474;2023-05-23T05:07:48;97499.06;;;15.56;100.00
27202;BME280;14717;46.924;15.474;2023-05-23T05:10:13;97497.50;;;15.75;100.00
27202;BME280;14717;46.924;15.474;2023-05-23T05:12:44;97486.94;;;15.89;98.63
27202;BME280;14717;46.924;15.474;2023-05-23T05:15:11;97496.34;;;16.05;96.58
27202;BME280;14717;46.924;15.474;2023-05-23T05:17:38;97489.88;;;16.21;95.52
27202;BME280;14717;46.924;15.474;2023-05-23T05:20:03;97487.22;;;16.33;96.01
27202;BME280;14717;46.924;15.474;2023-05-23T05:22:33;97484.25;;;16.30;95.93
27202;BME280;14717;46.924;15.474;2023-05-23T05:24:59;97482.91;;;16.36;96.42
27202;BME280;14717;46.924;15.474;2023-05-23T05:27:25;97488.75;;;16.43;95.06
27202;BME280;14717;46.924;15.474;2023-05-23T05:29:51;97484.41;;;16.54;94.71
27202;BME280;14717;46.924;15.474;2023-05-23T05:32:17;97476.91;;;16.66;94.66
27202;BME280;14717;46.924;15.474;2023-05-23T05:34:43;97477.78;;;16.99;93.55
27202;BME280;14717;46.924;15.474;2023-05-23T05:37:08;97479.91;;;17.13;93.07
27202;BME280;14717;46.924;15.474;2023-05-23T05:39:33;97475.47;;;17.21;89.40
27202;BME280;14717;46.924;15.474;2023-05-23T05:41:59;97476.78;;;17.35;89.03
27202;BME280;14717;46.924;15.474;2023-05-23T05:44:27;97473.19;;;17.47;88.00
27202;BME280;14717;46.924;15.474;2023-05-23T05:46:53;97469.72;;;17.61;87.56
27202;BME280;14717;46.924;15.474;2023-05-23T05:49:18;97465.53;;;17.79;87.97
27202;BME280;14717;46.924;15.474;2023-05-23T05:51:43;97462.28;;;17.77;87.53
27202;BME280;14717;46.924;15.474;2023-05-23T05:54:09;97465.78;;;17.74;86.32
27202;BME280;14717;46.924;15.474;2023-05-23T05:56:34;97463.00;;;17.98;88.00
27202;BME280;14717;46.924;15.474;2023-05-23T05:59:00;97471.97;;;18.03;87.66
27202;BME280;14717;46.924;15.474;2023-05-23T06:01:25;97467.00;;;18.21;84.96
27202;BME280;14717;46.924;15.474;2023-05-23T06:03:51;97471.53;;;18.37;82.79
27202;BME280;14717;46.924;15.474;2023-05-23T06:06:16;97466.38;;;18.27;81.83
27202;BME280;14717;46.924;15.474;2023-05-23T06:08:42;97465.78;;;18.33;84.25
27202;BME280;14717;46.924;15.474;2023-05-23T06:11:08;97458.06;;;18.54;83.05
27202;BME280;14717;46.924;15.474;2023-05-23T06:13:33;97461.03;;;18.73;82.43
27202;BME280;14717;46.924;15.474;2023-05-23T06:15:59;97461.75;;;18.70;82.66
27202;BME280;14717;46.924;15.474;2023-05-23T06:18:24;97462.00;;;18.92;83.30
27202;BME280;14717;46.924;15.474;2023-05-23T06:20:49;97459.59;;;19.18;80.92
27202;BME280;14717;46.924;15.474;2023-05-23T06:23:15;97466.63;;;19.39;82.13
27202;BME280;14717;46.924;15.474;2023-05-23T06:25:40;97460.31;;;19.42;80.25
27202;BME280;14717;46.924;15.474;2023-05-23T06:28:05;97461.38;;;19.53;78.68
27202;BME280;14717;46.924;15.474;2023-05-23T06:30:31;97456.75;;;19.30;78.20
27202;BME280;14717;46.924;15.474;2023-05-23T06:32:57;97458.91;;;19.36;79.44
27202;BME280;14717;46.924;15.474;2023-05-23T06:35:22;97454.34;;;19.59;76.41
27202;BME280;14717;46.924;15.474;2023-05-23T06:37:48;97456.97;;;19.83;76.67
27202;BME280;14717;46.924;15.474;2023-05-23T06:40:13;97460.09;;;19.93;77.48
27202;BME280;14717;46.924;15.474;2023-05-23T06:42:39;97455.28;;;20.24;77.06
27202;BME280;14717;46.924;15.474;2023-05-23T06:45:05;97456.00;;;20.55;75.52
27202;BME280;14717;46.924;15.474;2023-05-23T06:47:31;97456.53;;;20.61;73.87
27202;BME280;14717;46.924;15.474;2023-05-23T06:49:56;97456.78;;;20.71;72.71
27202;BME280;14717;46.924;15.474;2023-05-23T06:52:21;97453.13;;;20.86;70.99
27202;BME280;14717;46.924;15.474;2023-05-23T06:54:47;97448.00;;;20.92;71.85
27202;BME280;14717;46.924;15.474;2023-05-23T06:57:12;97455.78;;;20.79;70.99
27202;BME280;14717;46.924;15.474;2023-05-23T06:59:37;97461.28;;;21.10;69.85
27202;BME280;14717;46.924;15.474;2023-05-23T07:02:03;97449.81;;;21.18;69.41
27202;BME280;14717;46.924;15.474;2023-05-23T07:04:28;97448.00;;;21.29;68.94
27202;BME280;14717;46.924;15.474;2023-05-23T07:06:54;97442.50;;;21.36;66.50
27202;BME280;14717;46.924;15.474;2023-05-23T07:09:19;97443.97;;;21.68;68.02
27202;BME280;14717;46.924;15.474;2023-05-23T07:11:44;97443.66;;;21.95;68.75
27202;BME280;14717;46.924;15.474;2023-05-23T07:14:10;97453.78;;;21.99;67.07
27202;BME280;14717;46.924;15.474;2023-05-23T07:16:35;97450.28;;;22.06;67.80
27202;BME280;14717;46.924;15.474;2023-05-23T07:19:01;97447.34;;;22.21;65.92
27202;BME280;14717;46.924;15.474;2023-05-23T07:21:27;97443.56;;;22.36;65.73
27202;BME280;14717;46.924;15.474;2023-05-23T07:23:52;97440.75;;;22.36;65.47
27202;BME280;14717;46.924;15.474;2023-05-23T07:26:18;97432.22;;;22.55;63.59
27202;BME280;14717;46.924;15.474;2023-05-23T07:28:43;97435.69;;;22.74;62.59
27202;BME280;14717;46.924;15.474;2023-05-23T07:31:08;97435.97;;;22.91;63.15
27202;BME280;14717;46.924;15.474;2023-05-23T07:33:34;97439.81;;;23.06;63.00
27202;BME280;14717;46.924;15.474;2023-05-23T07:35:59;97436.22;;;22.83;60.58
27202;BME280;14717;46.924;15.474;2023-05-23T07:38:28;97416.66;;;22.93;63.30
27202;BME280;14717;46.924;15.474;2023-05-23T07:40:53;97424.25;;;22.89;61.57
27202;BME280;14717;46.924;15.474;2023-05-23T07:43:18;97422.94;;;22.83;62.71
27202;BME280;14717;46.924;15.474;2023-05-23T07:45:44;97424.19;;;23.15;66.05
27202;BME280;14717;46.924;15.474;2023-05-23T07:48:09;97432.06;;;23.32;62.99
27202;BME280;14717;46.924;15.474;2023-05-23T07:50:38;97416.19;;;23.53;63.89
27202;BME280;14717;46.924;15.474;2023-05-23T07:53:03;97422.41;;;23.33;63.36
27202;BME280;14717;46.924;15.474;2023-05-23T07:55:29;97419.00;;;23.17;62.04
27202;BME280;14717;46.924;15.474;2023-05-23T07:57:54;97423.75;;;23.46;62.12
27202;BME280;14717;46.924;15.474;2023-05-23T08:00:20;97417.16;;;23.67;58.69
27202;BME280;14717;46.924;15.474;2023-05-23T08:02:46;97415.78;;;23.91;57.23
27202;BME280;14717;46.924;15.474;2023-05-23T08:05:12;97412.75;;;24.09;56.97
27202;BME280;14717;46.924;15.474;2023-05-23T08:07:37;97408.16;;;24.41;59.02
27202;BME280;14717;46.924;15.474;2023-05-23T08:10:03;97409.66;;;24.28;55.35
27202;BME280;14717;46.924;15.474;2023-05-23T08:12:28;97408.22;;;24.51;56.10
27202;BME280;14717;46.924;15.474;2023-05-23T08:14:54;97408.72;;;24.60;55.63
27202;BME280;14717;46.924;15.474;2023-05-23T08:17:19;97404.38;;;24.77;55.58
27202;BME280;14717;46.924;15.474;2023-05-23T08:19:45;97397.69;;;24.45;53.49
27202;BME280;14717;46.924;15.474;2023-05-23T08:22:10;97403.44;;;24.55;56.11
27202;BME280;14717;46.924;15.474;2023-05-23T08:24:36;97406.59;;;24.43;56.46
27202;BME280;14717;46.924;15.474;2023-05-23T08:27:01;97405.03;;;24.56;56.56
27202;BME280;14717;46.924;15.474;2023-05-23T08:29:27;97404.22;;;24.56;55.09
27202;BME280;14717;46.924;15.474;2023-05-23T08:31:52;97396.34;;;24.89;54.25
27202;BME280;14717;46.924;15.474;2023-05-23T08:34:17;97395.56;;;24.95;56.23
27202;BME280;14717;46.924;15.474;2023-05-23T08:36:43;97392.78;;;24.99;56.76
27202;BME280;14717;46.924;15.474;2023-05-23T08:39:08;97394.97;;;25.36;57.04
27202;BME280;14717;46.924;15.474;2023-05-23T08:41:34;97403.13;;;25.55;51.96
27202;BME280;14717;46.924;15.474;2023-05-23T08:44:00;97402.69;;;25.46;54.71
27202;BME280;14717;46.924;15.474;2023-05-23T08:46:25;97405.13;;;25.58;53.58
27202;BME280;14717;46.924;15.474;2023-05-23T08:48:55;97410.78;;;25.58;55.06
27202;BME280;14717;46.924;15.474;2023-05-23T08:51:21;97402.28;;;25.48;53.49
27202;BME280;14717;46.924;15.474;2023-05-23T08:53:47;97400.34;;;25.66;53.58
27202;BME280;14717;46.924;15.474;2023-05-23T08:56:13;97405.59;;;25.81;53.43
27202;BME280;14717;46.924;15.474;2023-05-23T08:58:40;97398.31;;;25.73;50.89
27202;BME280;14717;46.924;15.474;2023-05-23T09:01:09;97403.19;;;25.76;52.08
27202;BME280;14717;46.924;15.474;2023-05-23T09:03:36;97401.59;;;25.89;51.41
27202;BME280;14717;46.924;15.474;2023-05-23T09:06:07;97400.34;;;25.86;51.92
27202;BME280;14717;46.924;15.474;2023-05-23T09:08:33;97396.34;;;26.22;54.95
27202;BME280;14717;46.924;15.474;2023-05-23T09:10:59;97389.47;;;25.85;51.00
27202;BME280;14717;46.924;15.474;2023-05-23T09:13:33;97392.66;;;25.76;50.65
27202;BME280;14717;46.924;15.474;2023-05-23T09:16:02;97385.38;;;25.86;52.73
27202;BME280;14717;46.924;15.474;2023-05-23T09:29:05;97370.81;;;26.53;47.36
27202;BME280;14717;46.924;15.474;2023-05-23T09:31:31;97367.16;;;26.66;49.17
27202;BME280;14717;46.924;15.474;2023-05-23T09:33:57;97360.97;;;27.02;50.33
27202;BME280;14717;46.924;15.474;2023-05-23T09:36:26;97364.91;;;27.36;49.39
27202;BME280;14717;46.924;15.474;2023-05-23T09:38:53;97359.31;;;27.15;48.12
27202;BME280;14717;46.924;15.474;2023-05-23T09:41:19;97364.13;;;27.25;47.50
27202;BME280;14717;46.924;15.474;2023-05-23T09:43:52;97353.72;;;27.01;45.97
27202;BME280;14717;46.924;15.474;2023-05-23T09:46:19;97353.13;;;27.34;47.50
27202;BME280;14717;46.924;15.474;2023-05-23T09:48:46;97357.50;;;27.56;46.57
27202;BME280;14717;46.924;15.474;2023-05-23T09:51:12;97361.44;;;27.76;44.74
27202;BME280;14717;46.924;15.474;2023-05-23T09:53:37;97349.88;;;28.03;47.87
27202;BME280;14717;46.924;15.474;2023-05-23T09:56:03;97347.19;;;27.83;44.88
27202;BME280;14717;46.924;15.474;2023-05-23T09:58:29;97344.75;;;27.81;44.87
27202;BME280;14717;46.924;15.474;2023-05-23T10:00:55;97345.53;;;27.88;45.00
27202;BME280;14717;46.924;15.474;2023-05-23T10:03:33;97339.72;;;28.02;44.92
27202;BME280;14717;46.924;15.474;2023-05-23T10:06:15;97342.13;;;28.04;43.99
27202;BME280;14717;46.924;15.474;2023-05-23T10:08:50;97336.84;;;28.09;42.18
27202;BME280;14717;46.924;15.474;2023-05-23T10:14:01;97327.16;;;27.96;41.53
27202;BME280;14717;46.924;15.474;2023-05-23T10:22:06;97313.09;;;28.33;42.32
27202;BME280;14717;46.924;15.474;2023-05-23T10:24:33;97310.25;;;28.33;39.95
27202;BME280;14717;46.924;15.474;2023-05-23T10:26:58;97319.91;;;28.39;39.22
27202;BME280;14717;46.924;15.474;2023-05-23T10:29:25;97309.91;;;28.24;40.20
27202;BME280;14717;46.924;15.474;2023-05-23T10:31:51;97306.34;;;28.53;38.24
27202;BME280;14717;46.924;15.474;2023-05-23T10:34:24;97304.28;;;28.94;38.79
27202;BME280;14717;46.924;15.474;2023-05-23T10:37:04;97304.28;;;29.27;39.60
27202;BME280;14717;46.924;15.474;2023-05-23T10:45:18;97296.59;;;29.24;41.44
27202;BME280;14717;46.924;15.474;2023-05-23T10:47:46;97297.56;;;29.11;39.61
27202;BME280;14717;46.924;15.474;2023-05-23T10:50:14;97296.38;;;29.38;38.31
27202;BME280;14717;46.924;15.474;2023-05-23T10:52:40;97290.41;;;29.29;39.44
27202;BME280;14717;46.924;15.474;2023-05-23T10:55:14;97276.31;;;29.48;38.46
27202;BME280;14717;46.924;15.474;2023-05-23T10:57:42;97265.72;;;29.19;38.50
27202;BME280;14717;46.924;15.474;2023-05-23T11:00:15;97264.53;;;29.20;38.32
27202;BME280;14717;46.924;15.474;2023-05-23T11:02:53;97250.34;;;29.13;38.17
27202;BME280;14717;46.924;15.474;2023-05-23T11:05:23;97267.53;;;29.36;39.32
27202;BME280;14717;46.924;15.474;2023-05-23T11:08:08;97266.06;;;30.03;38.88
27202;BME280;14717;46.924;15.474;2023-05-23T11:10:54;97260.34;;;30.03;38.68
27202;BME280;14717;46.924;15.474;2023-05-23T11:13:21;97279.94;;;30.24;36.46
27202;BME280;14717;46.924;15.474;2023-05-23T11:15:47;97273.72;;;30.32;37.22
27202;BME280;14717;46.924;15.474;2023-05-23T11:18:21;97279.06;;;30.30;35.79
27202;BME280;14717;46.924;15.474;2023-05-23T11:20:49;97285.00;;;29.90;35.88
27202;BME280;14717;46.924;15.474;2023-05-23T11:23:15;97280.63;;;29.60;36.91
27202;BME280;14717;46.924;15.474;2023-05-23T11:25:42;97273.66;;;29.60;37.95
27202;BME280;14717;46.924;15.474;2023-05-23T11:28:12;97280.19;;;29.35;36.69
27202;BME280;14717;46.924;15.474;2023-05-23T11:30:38;97269.75;;;29.21;35.38
27202;BME280;14717;46.924;15.474;2023-05-23T11:33:10;97256.00;;;29.20;36.45
27202;BME280;14717;46.924;15.474;2023-05-23T11:35:42;97240.56;;;29.14;37.57
27202;BME280;14717;46.924;15.474;2023-05-23T11:38:08;97227.19;;;29.11;38.05
27202;BME280;14717;46.924;15.474;2023-05-23T11:43:05;97234.22;;;29.03;38.96
27202;BME280;14717;46.924;15.474;2023-05-23T11:45:31;97236.31;;;28.70;39.16
27202;BME280;14717;46.924;15.474;2023-05-23T11:47:57;97245.69;;;28.30;39.75
27202;BME280;14717;46.924;15.474;2023-05-23T11:50:23;97265.19;;;27.85;42.32
27202;BME280;14717;46.924;15.474;2023-05-23T11:52:49;97287.84;;;27.38;45.34
27202;BME280;14717;46.924;15.474;2023-05-23T11:55:21;97292.31;;;27.35;52.64
27202;BME280;14717;46.924;15.474;2023-05-23T11:57:48;97299.50;;;26.72;50.47
27202;BME280;14717;46.924;15.474;2023-05-23T12:00:14;97323.50;;;25.88;52.88
27202;BME280;14717;46.924;15.474;2023-05-23T12:02:41;97344.34;;;25.11;55.69
27202;BME280;14717;46.924;15.474;2023-05-23T12:05:08;97355.88;;;24.11;58.79
27202;BME280;14717;46.924;15.474;2023-05-23T12:07:34;97377.44;;;21.78;66.64
27202;BME280;14717;46.924;15.474;2023-05-23T12:10:02;97388.88;;;21.03;71.78
27202;BME280;14717;46.924;15.474;2023-05-23T12:12:28;97388.44;;;20.83;73.08
27202;BME280;14717;46.924;15.474;2023-05-23T12:14:55;97375.50;;;20.78;75.25
27202;BME280;14717;46.924;15.474;2023-05-23T12:17:21;97378.91;;;20.68;76.09
27202;BME280;14717;46.924;15.474;2023-05-23T12:19:47;97386.59;;;20.37;75.80
27202;BME280;14717;46.924;15.474;2023-05-23T12:22:12;97395.13;;;20.07;76.38
27202;BME280;14717;46.924;15.474;2023-05-23T12:24:44;97405.38;;;19.84;76.28
27202;BME280;14717;46.924;15.474;2023-05-23T12:27:11;97406.25;;;19.57;79.09
27202;BME280;14717;46.924;15.474;2023-05-23T12:29:36;97447.38;;;19.53;78.48
27202;BME280;14717;46.924;15.474;2023-05-23T12:32:04;97490.28;;;19.42;74.12
27202;BME280;14717;46.924;15.474;2023-05-23T12:34:30;97504.56;;;19.37;71.77
27202;BME280;14717;46.924;15.474;2023-05-23T12:36:56;97509.00;;;19.38;71.71
27202;BME280;14717;46.924;15.474;2023-05-23T12:39:26;97518.56;;;19.37;72.02
27202;BME280;14717;46.924;15.474;2023-05-23T12:41:52;97531.06;;;19.39;75.51
27202;BME280;14717;46.924;15.474;2023-05-23T12:44:20;97538.53;;;19.35;76.83
27202;BME280;14717;46.924;15.474;2023-05-23T12:46:46;97555.88;;;19.25;76.59
27202;BME280;14717;46.924;15.474;2023-05-23T12:49:12;97575.03;;;18.49;80.18
27202;BME280;14717;46.924;15.474;2023-05-23T12:51:38;97579.34;;;17.90;86.76
27202;BME280;14717;46.924;15.474;2023-05-23T12:54:04;97587.00;;;17.70;87.89
27202;BME280;14717;46.924;15.474;2023-05-23T12:56:29;97584.06;;;17.66;89.56
27202;BME280;14717;46.924;15.474;2023-05-23T12:58:55;97585.25;;;17.77;89.70
27202;BME280;14717;46.924;15.474;2023-05-23T13:01:21;97574.66;;;17.83;93.75
27202;BME280;14717;46.924;15.474;2023-05-23T13:03:46;97569.19;;;17.74;96.61
27202;BME280;14717;46.924;15.474;2023-05-23T13:06:12;97580.19;;;17.59;97.36
27202;BME280;14717;46.924;15.474;2023-05-23T13:08:37;97573.31;;;17.56;100.00
27202;BME280;14717;46.924;15.474;2023-05-23T13:11:03;97568.78;;;18.08;100.00
27202;BME280;14717;46.924;15.474;2023-05-23T13:13:29;97554.59;;;18.36;100.00
27202;BME280;14717;46.924;15.474;2023-05-23T13:15:56;97529.78;;;18.59;97.25
27202;BME280;14717;46.924;15.474;2023-05-23T13:18:21;97522.41;;;18.54;97.81
27202;BME280;14717;46.924;15.474;2023-05-23T13:20:47;97513.00;;;18.47;95.17